createdAt,value
2023-02-05T00:01:49.593Z,6.31
2023-02-05T00:04:19.009Z,6.40
2023-02-05T00:06:49.453Z,6.26
2023-02-05T00:09:18.621Z,6.28
2023-02-05T00:11:50.473Z,6.43
2023-02-05T00:14:19.962Z,6.56
2023-02-05T00:17:10.872Z,6.57
2023-02-05T00:19:41.757Z,6.58
2023-02-05T00:23:01.954Z,6.53
2023-02-05T00:25:03.885Z,6.47
2023-02-05T00:27:30.941Z,6.48
2023-02-05T00:29:57.852Z,6.48
2023-02-05T00:32:27.283Z,6.23
2023-02-05T00:34:54.125Z,6.11
2023-02-05T00:37:24.170Z,6.06
2023-02-05T00:39:51.209Z,6.09
2023-02-05T00:42:17.953Z,6.15
2023-02-05T00:44:44.871Z,6.08
2023-02-05T00:47:11.589Z,5.92
2023-02-05T00:49:38.480Z,5.87
2023-02-05T00:52:05.878Z,6.01
2023-02-05T00:54:32.878Z,6.17
2023-02-05T00:56:59.540Z,6.19
2023-02-05T00:59:26.381Z,6.10
2023-02-05T01:01:53.148Z,5.92
2023-02-05T01:04:20.723Z,5.93
2023-02-05T01:06:47.710Z,5.94
2023-02-05T01:09:14.428Z,5.98
2023-02-05T01:11:44.241Z,6.02
2023-02-05T01:14:13.118Z,6.14
2023-02-05T01:16:42.390Z,6.27
2023-02-05T01:19:09.260Z,6.34
2023-02-05T01:21:36.445Z,6.31
2023-02-05T01:24:06.996Z,6.32
2023-02-05T01:26:33.758Z,6.34
2023-02-05T01:29:01.126Z,6.25
2023-02-05T01:31:29.765Z,6.23
2023-02-05T01:33:58.029Z,6.17
2023-02-05T01:36:24.854Z,6.14
2023-02-05T01:38:52.936Z,6.06
2023-02-05T01:41:22.953Z,6.14
2023-02-05T01:44:12.191Z,6.03
2023-02-05T01:46:47.113Z,5.99
2023-02-05T01:49:35.522Z,5.93
2023-02-05T01:52:08.110Z,6.01
2023-02-05T01:54:38.221Z,5.87
2023-02-05T01:57:07.799Z,5.89
2023-02-05T01:59:38.112Z,6.00
2023-02-05T02:02:08.101Z,6.14
2023-02-05T02:04:40.721Z,6.22
2023-02-05T02:07:10.830Z,6.06
2023-02-05T02:09:41.959Z,6.08
2023-02-05T02:12:10.871Z,6.09
2023-02-05T02:14:40.543Z,5.98
2023-02-05T02:17:07.928Z,5.88
2023-02-05T02:19:59.477Z,5.88
2023-02-05T02:22:29.043Z,5.81
2023-02-05T02:25:04.999Z,5.70
2023-02-05T02:27:56.078Z,5.46
2023-02-05T02:30:22.786Z,5.35
2023-02-05T02:33:03.508Z,5.42
2023-02-05T02:35:43.621Z,5.48
2023-02-05T02:38:27.249Z,5.52
2023-02-05T02:41:03.203Z,5.62
2023-02-05T02:43:54.530Z,5.44
2023-02-05T02:46:31.987Z,5.42
2023-02-05T02:49:07.066Z,5.43
2023-02-05T02:51:38.105Z,5.33
2023-02-05T02:54:09.370Z,5.35
2023-02-05T02:56:39.773Z,5.24
2023-02-05T02:59:15.449Z,5.40
2023-02-05T03:01:53.326Z,5.37
2023-02-05T03:04:33.744Z,5.24
2023-02-05T03:07:27.695Z,5.34
2023-02-05T03:10:03.620Z,5.52
2023-02-05T03:12:31.023Z,5.60
2023-02-05T03:14:58.227Z,5.59
2023-02-05T03:17:27.110Z,5.66
2023-02-05T03:20:02.119Z,5.73
2023-02-05T03:22:29.239Z,5.81
2023-02-05T03:24:57.032Z,5.76
2023-02-05T03:27:25.207Z,5.49
2023-02-05T03:29:52.803Z,5.30
2023-02-05T03:32:36.909Z,5.27
2023-02-05T03:35:03.646Z,5.21
2023-02-05T03:37:48.901Z,5.15
2023-02-05T03:40:40.386Z,5.22
2023-02-05T03:43:12.328Z,5.34
2023-02-05T03:45:55.948Z,5.38
2023-02-05T03:48:37.971Z,5.42
2023-02-05T03:51:19.777Z,5.40
2023-02-05T03:54:13.443Z,5.33
2023-02-05T03:56:46.522Z,5.37
2023-02-05T03:59:16.666Z,5.49
2023-02-05T04:01:45.568Z,5.59
2023-02-05T04:04:13.918Z,5.59
2023-02-05T04:06:40.972Z,5.54
2023-02-05T04:09:10.133Z,5.52
2023-02-05T04:11:38.508Z,5.39
2023-02-05T04:14:05.650Z,5.27
2023-02-05T04:16:33.039Z,5.23
2023-02-05T04:19:01.001Z,5.26
2023-02-05T04:21:28.071Z,5.35
2023-02-05T04:23:55.099Z,5.43
2023-02-05T04:26:21.850Z,5.43
2023-02-05T04:28:58.245Z,5.41
2023-02-05T04:31:25.726Z,5.44
2023-02-05T04:33:52.547Z,5.30
2023-02-05T04:36:19.346Z,5.11
2023-02-05T04:38:46.187Z,5.15
2023-02-05T04:41:14.255Z,5.07
2023-02-05T04:43:41.102Z,5.07
2023-02-05T04:46:09.388Z,5.06
2023-02-05T04:48:37.379Z,5.09
2023-02-05T04:51:09.390Z,5.13
2023-02-05T04:53:36.849Z,5.15
2023-02-05T04:56:15.269Z,5.01
2023-02-05T04:58:42.260Z,4.83
2023-02-05T05:01:17.626Z,4.69
2023-02-05T05:03:45.155Z,4.61
2023-02-05T05:06:13.090Z,4.66
2023-02-05T05:08:41.415Z,4.66
2023-02-05T05:11:11.043Z,4.79
2023-02-05T05:13:37.967Z,4.81
2023-02-05T05:16:06.131Z,4.70
2023-02-05T05:18:35.034Z,4.82
2023-02-05T05:21:02.974Z,4.80
2023-02-05T05:23:30.114Z,4.84
2023-02-05T05:25:57.169Z,4.92
2023-02-05T05:28:23.994Z,4.79
2023-02-05T05:30:51.274Z,4.67
2023-02-05T05:33:18.061Z,4.71
2023-02-05T05:35:45.984Z,4.77
2023-02-05T05:38:12.773Z,4.80
2023-02-05T05:40:58.572Z,4.89
2023-02-05T05:43:44.004Z,4.86
2023-02-05T05:46:13.985Z,4.89
2023-02-05T05:48:40.803Z,4.69
2023-02-05T05:51:07.537Z,4.43
2023-02-05T05:53:34.502Z,4.30
2023-02-05T05:56:01.301Z,4.27
2023-02-05T05:58:28.178Z,4.26
2023-02-05T06:00:58.050Z,4.21
2023-02-05T06:03:27.299Z,4.17
2023-02-05T06:05:54.798Z,4.10
2023-02-05T06:08:21.581Z,4.10
2023-02-05T06:10:48.382Z,4.16
2023-02-05T06:13:15.112Z,4.19
2023-02-05T06:15:41.915Z,4.20
2023-02-05T06:18:11.622Z,4.24
2023-02-05T06:20:38.459Z,4.31
2023-02-05T06:23:05.192Z,4.40
2023-02-05T06:25:32.338Z,4.55
2023-02-05T06:27:59.329Z,4.59
2023-02-05T06:30:27.745Z,4.55
2023-02-05T06:32:54.470Z,4.52
2023-02-05T06:35:21.334Z,4.59
2023-02-05T06:37:48.123Z,4.63
2023-02-05T06:40:18.319Z,4.68
2023-02-05T06:42:45.406Z,4.75
2023-02-05T06:45:12.340Z,4.80
2023-02-05T06:47:39.261Z,4.64
2023-02-05T06:50:07.063Z,4.54
2023-02-05T06:52:34.044Z,4.42
2023-02-05T06:55:00.937Z,4.39
2023-02-05T06:57:27.733Z,4.29
2023-02-05T06:59:54.394Z,4.28
2023-02-05T07:02:21.403Z,4.34
2023-02-05T07:04:48.203Z,4.46
2023-02-05T07:07:16.798Z,4.48
2023-02-05T07:09:44.008Z,4.54
2023-02-05T07:12:10.881Z,4.59
2023-02-05T07:14:42.035Z,4.65
2023-02-05T07:17:09.409Z,4.78
2023-02-05T07:19:37.519Z,4.84
2023-02-05T07:22:05.498Z,4.87
2023-02-05T07:24:32.569Z,4.92
2023-02-05T07:26:59.491Z,5.01
2023-02-05T07:29:27.252Z,5.04
2023-02-05T07:31:54.211Z,5.06
2023-02-05T07:34:21.261Z,5.12
2023-02-05T07:36:52.400Z,5.15
2023-02-05T07:39:19.555Z,5.18
2023-02-05T07:41:46.364Z,5.17
2023-02-05T07:44:22.073Z,5.24
2023-02-05T07:46:49.008Z,5.31
2023-02-05T07:49:15.921Z,5.41
2023-02-05T07:51:42.996Z,5.59
2023-02-05T07:54:10.833Z,5.72
2023-02-05T07:56:37.700Z,5.71
2023-02-05T07:59:04.607Z,5.74
2023-02-05T08:01:32.093Z,5.80
2023-02-05T08:04:01.752Z,5.93
2023-02-05T08:06:28.557Z,6.06
2023-02-05T08:08:56.200Z,6.13
2023-02-05T08:11:23.154Z,6.10
2023-02-05T08:13:49.964Z,6.26
2023-02-05T08:16:16.967Z,6.35
2023-02-05T08:18:48.515Z,6.38
2023-02-05T08:21:15.681Z,6.44
2023-02-05T08:23:44.936Z,6.52
2023-02-05T08:26:12.132Z,6.58
2023-02-05T08:28:42.045Z,6.61
2023-02-05T08:31:10.753Z,6.71
2023-02-05T08:33:37.566Z,6.77
2023-02-05T08:36:04.605Z,6.83
2023-02-05T08:38:31.558Z,6.88
2023-02-05T08:40:58.409Z,6.91
2023-02-05T08:43:25.144Z,6.92
2023-02-05T08:45:51.861Z,7.02
2023-02-05T08:48:18.827Z,7.09
2023-02-05T08:50:46.689Z,7.20
2023-02-05T08:53:13.614Z,7.31
2023-02-05T08:55:40.445Z,7.31
2023-02-05T08:58:07.337Z,7.37
2023-02-05T09:00:37.978Z,7.47
2023-02-05T09:03:04.828Z,7.61
2023-02-05T09:05:31.754Z,7.57
2023-02-05T09:07:59.339Z,7.59
2023-02-05T09:10:26.320Z,7.52
2023-02-05T09:12:53.186Z,7.65
2023-02-05T09:15:20.143Z,7.74
2023-02-05T09:17:47.112Z,7.61
2023-02-05T09:20:14.159Z,7.60
2023-02-05T09:22:43.501Z,7.62
2023-02-05T09:25:11.908Z,7.60
2023-02-05T09:27:38.693Z,7.70
2023-02-05T09:30:05.922Z,7.89
2023-02-05T09:32:32.866Z,7.95
2023-02-05T09:34:59.679Z,8.11
2023-02-05T09:37:26.450Z,8.37
2023-02-05T09:40:19.513Z,8.58
2023-02-05T09:42:53.252Z,8.61
2023-02-05T09:45:38.483Z,8.72
2023-02-05T09:48:23.949Z,8.75
2023-02-05T09:50:51.040Z,8.70
2023-02-05T09:53:22.756Z,8.84
2023-02-05T09:55:50.267Z,8.80
2023-02-05T09:58:27.889Z,8.93
2023-02-05T10:01:13.187Z,9.10
2023-02-05T10:03:47.105Z,9.18
2023-02-05T10:06:21.399Z,9.22
2023-02-05T10:09:38.877Z,9.42
2023-02-05T10:12:33.004Z,9.59
2023-02-05T10:15:17.110Z,9.67
2023-02-05T10:18:07.857Z,9.70
2023-02-05T10:20:47.035Z,9.67
2023-02-05T10:23:17.244Z,9.57
2023-02-05T10:26:09.143Z,9.74
2023-02-05T10:29:12.955Z,9.85
2023-02-05T10:31:40.690Z,9.90
2023-02-05T10:34:18.223Z,9.86
2023-02-05T10:36:51.047Z,10.03
2023-02-05T10:39:20.162Z,10.05
2023-02-05T10:41:56.490Z,10.09
2023-02-05T10:44:32.683Z,10.14
2023-02-05T10:47:12.350Z,10.27
2023-02-05T10:49:50.824Z,10.33
2023-02-05T10:52:17.961Z,10.48
2023-02-05T10:54:46.135Z,10.57
2023-02-05T10:57:19.054Z,10.60
2023-02-05T10:59:59.657Z,10.54
2023-02-05T11:02:37.992Z,10.66
2023-02-05T11:05:30.439Z,10.70
2023-02-05T11:07:58.548Z,10.73
2023-02-05T11:10:29.173Z,10.66
2023-02-05T11:12:58.006Z,10.83
2023-02-05T11:15:32.796Z,11.03
2023-02-05T11:18:03.400Z,11.02
2023-02-05T11:20:34.892Z,11.10
2023-02-05T11:23:26.399Z,11.15
2023-02-05T11:25:57.929Z,10.97
2023-02-05T11:28:39.877Z,10.84
2023-02-05T11:31:45.349Z,10.78
2023-02-05T11:34:16.614Z,10.68
2023-02-05T11:36:52.099Z,10.52
2023-02-05T11:39:34.229Z,10.60
2023-02-05T11:42:15.865Z,10.79
2023-02-05T11:44:57.754Z,11.09
2023-02-05T11:47:31.444Z,11.32
2023-02-05T11:49:59.824Z,11.49
2023-02-05T11:52:30.829Z,11.59
2023-02-05T11:54:57.717Z,11.62
2023-02-05T11:57:30.511Z,11.73
2023-02-05T12:00:01.976Z,11.77
2023-02-05T12:02:34.304Z,11.86
2023-02-05T12:05:03.962Z,11.93
2023-02-05T12:07:40.093Z,12.02
2023-02-05T12:10:16.106Z,11.98
2023-02-05T12:13:04.220Z,11.93
2023-02-05T12:15:47.834Z,12.04
2023-02-05T12:18:33.441Z,12.02
2023-02-05T12:21:32.388Z,11.97
2023-02-05T12:24:22.850Z,11.86
2023-02-05T12:26:56.996Z,11.59
2023-02-05T12:29:45.384Z,11.47
2023-02-05T12:32:37.958Z,11.63
2023-02-05T12:35:25.710Z,11.72
2023-02-05T12:38:31.491Z,11.85
2023-02-05T12:41:26.856Z,11.88
2023-02-05T12:44:22.361Z,11.92
2023-02-05T12:47:00.936Z,11.82
2023-02-05T12:49:44.911Z,11.81
2023-02-05T12:52:36.590Z,11.85
2023-02-05T12:55:18.437Z,11.85
2023-02-05T12:57:54.173Z,11.85
2023-02-05T13:00:27.119Z,12.05
2023-02-05T13:03:06.518Z,12.04
2023-02-05T13:05:41.539Z,11.96
2023-02-05T13:08:25.163Z,11.99
2023-02-05T13:11:02.797Z,12.13
2023-02-05T13:13:38.530Z,12.29
2023-02-05T13:16:16.088Z,12.30
2023-02-05T13:19:00.795Z,12.35
2023-02-05T13:21:47.398Z,12.38
2023-02-05T13:24:38.513Z,12.36
2023-02-05T13:27:36.868Z,12.17
2023-02-05T13:30:06.842Z,12.14
2023-02-05T13:33:05.428Z,12.24
2023-02-05T13:36:22.027Z,12.29
2023-02-05T13:39:06.928Z,12.36
2023-02-05T13:42:00.612Z,12.29
2023-02-05T13:45:13.271Z,12.25
2023-02-05T13:48:13.511Z,12.10
2023-02-05T13:51:47.631Z,12.06
2023-02-05T13:57:57.727Z,11.75
2023-02-05T14:00:25.948Z,11.68
2023-02-05T14:02:56.109Z,11.63
2023-02-05T14:05:33.507Z,11.50
2023-02-05T14:08:03.310Z,11.45
2023-02-05T14:10:35.207Z,11.40
2023-02-05T14:13:13.117Z,11.21
2023-02-05T14:15:42.885Z,11.26
2023-02-05T14:18:33.825Z,11.21
2023-02-05T14:21:00.706Z,11.11
2023-02-05T14:23:45.913Z,11.04
2023-02-05T14:26:12.933Z,10.99
2023-02-05T14:28:51.452Z,10.98
2023-02-05T14:31:48.239Z,10.95
2023-02-05T14:34:45.862Z,10.84
2023-02-05T14:37:35.517Z,10.81
2023-02-05T14:40:31.532Z,10.73
2023-02-05T14:43:14.073Z,10.64
2023-02-05T14:45:49.466Z,10.81
2023-02-05T14:48:29.470Z,10.78
2023-02-05T14:51:24.530Z,10.67
2023-02-05T14:54:22.231Z,10.63
2023-02-05T14:56:51.835Z,10.58
2023-02-05T14:59:38.914Z,10.55
2023-02-05T15:02:50.356Z,10.51
2023-02-05T15:06:04.666Z,10.40
2023-02-05T15:08:34.470Z,10.32
2023-02-05T15:11:28.920Z,10.24
2023-02-05T15:14:21.297Z,10.19
2023-02-05T15:17:29.795Z,10.21
2023-02-05T15:20:02.101Z,10.21
2023-02-05T15:22:36.332Z,10.20
2023-02-05T15:25:30.598Z,10.19
2023-02-05T15:28:07.385Z,10.22
2023-02-05T15:30:48.254Z,10.22
2023-02-05T15:33:27.566Z,10.19
2023-02-05T15:35:56.421Z,10.19
2023-02-05T15:38:43.131Z,10.18
2023-02-05T15:41:14.088Z,10.17
2023-02-05T15:43:40.799Z,10.16
2023-02-05T15:46:09.967Z,10.12
2023-02-05T15:48:40.033Z,10.10
2023-02-05T15:51:30.616Z,10.05
2023-02-05T15:54:00.435Z,10.00
2023-02-05T15:56:32.810Z,10.03
2023-02-05T15:59:11.714Z,10.02
2023-02-05T16:01:47.003Z,10.03
2023-02-05T16:04:27.138Z,10.02
2023-02-05T16:06:54.132Z,10.04
2023-02-05T16:09:24.262Z,9.99
2023-02-05T16:11:52.068Z,9.95
2023-02-05T16:14:23.902Z,9.97
2023-02-05T16:17:26.529Z,9.95
2023-02-05T16:20:07.431Z,9.98
2023-02-05T16:22:45.197Z,10.00
2023-02-05T16:25:37.255Z,9.92
2023-02-05T16:28:17.991Z,9.86
2023-02-05T16:30:47.516Z,9.87
2023-02-05T16:33:32.520Z,9.91
2023-02-05T16:36:03.544Z,9.98
2023-02-05T16:38:30.589Z,10.01
2023-02-05T16:41:21.172Z,10.06
2023-02-05T16:43:52.054Z,10.16
2023-02-05T16:46:25.004Z,10.14
2023-02-05T16:49:00.180Z,10.17
2023-02-05T16:51:33.053Z,10.12
2023-02-05T16:54:21.238Z,10.07
2023-02-05T16:56:55.421Z,10.05
2023-02-05T17:00:14.208Z,9.98
2023-02-05T17:02:42.010Z,9.92
2023-02-05T17:05:33.623Z,9.91
2023-02-05T17:08:06.091Z,9.89
2023-02-05T17:10:49.549Z,9.83
2023-02-05T17:13:41.675Z,9.85
2023-02-05T17:16:29.872Z,9.81
2023-02-05T17:19:05.511Z,9.76
2023-02-05T17:21:37.730Z,9.72
2023-02-05T17:24:09.254Z,9.66
2023-02-05T17:26:41.210Z,9.64
2023-02-05T17:29:14.817Z,9.49
2023-02-05T17:31:42.289Z,9.32
2023-02-05T17:34:11.840Z,9.21
2023-02-05T17:36:38.827Z,9.20
2023-02-05T17:39:05.832Z,9.28
2023-02-05T17:41:56.001Z,9.20
2023-02-05T17:44:22.994Z,9.10
2023-02-05T17:46:50.025Z,9.06
2023-02-05T17:49:17.483Z,9.07
2023-02-05T17:51:44.417Z,9.08
2023-02-05T17:54:20.188Z,9.08
2023-02-05T17:56:48.645Z,9.08
2023-02-05T17:59:20.821Z,9.10
2023-02-05T18:01:48.923Z,9.02
2023-02-05T18:04:18.780Z,8.97
2023-02-05T18:06:48.794Z,8.81
2023-02-05T18:09:16.572Z,8.55
2023-02-05T18:11:43.476Z,8.52
2023-02-05T18:14:10.957Z,8.57
2023-02-05T18:16:37.762Z,8.63
2023-02-05T18:19:05.078Z,8.62
2023-02-05T18:21:32.386Z,8.63
2023-02-05T18:23:59.464Z,8.65
2023-02-05T18:26:27.170Z,8.62
2023-02-05T18:28:54.683Z,8.64
2023-02-05T18:31:21.626Z,8.57
2023-02-05T18:33:49.439Z,8.58
2023-02-05T18:36:16.459Z,8.60
2023-02-05T18:38:43.895Z,8.60
2023-02-05T18:41:10.726Z,8.61
2023-02-05T18:43:38.050Z,8.63
2023-02-05T18:46:11.622Z,8.69
2023-02-05T18:48:43.728Z,8.72
2023-02-05T18:51:14.324Z,8.64
2023-02-05T18:53:43.523Z,8.66
2023-02-05T18:56:34.730Z,8.58
2023-02-05T18:59:06.144Z,8.58
2023-02-05T19:01:36.813Z,8.65
2023-02-05T19:04:20.838Z,8.68
2023-02-05T19:06:55.067Z,8.72
2023-02-05T19:09:24.335Z,8.75
2023-02-05T19:11:52.305Z,8.83
2023-02-05T19:14:21.769Z,8.89
2023-02-05T19:16:49.694Z,8.93
2023-02-05T19:19:21.164Z,8.97
2023-02-05T19:21:57.592Z,8.99
2023-02-05T19:24:27.144Z,9.04
2023-02-05T19:26:57.788Z,9.08
2023-02-05T19:29:26.028Z,9.10
2023-02-05T19:31:53.944Z,9.20
2023-02-05T19:34:24.735Z,9.18
2023-02-05T19:36:58.139Z,9.17
2023-02-05T19:39:25.365Z,9.21
2023-02-05T19:41:53.056Z,9.26
2023-02-05T19:44:24.078Z,9.32
2023-02-05T19:46:51.282Z,9.39
2023-02-05T19:49:20.371Z,9.32
2023-02-05T19:51:50.273Z,9.41
2023-02-05T19:54:21.171Z,9.33
2023-02-05T19:56:49.736Z,9.27
2023-02-05T19:59:17.754Z,9.21
2023-02-05T20:01:47.053Z,9.10
2023-02-05T20:04:26.041Z,8.88
2023-02-05T20:06:58.787Z,8.73
2023-02-05T20:09:28.122Z,8.44
2023-02-05T20:11:56.221Z,8.29
2023-02-05T20:14:25.007Z,8.18
2023-02-05T20:16:53.433Z,8.14
2023-02-05T20:19:21.090Z,8.01
2023-02-05T20:21:49.052Z,7.97
2023-02-05T20:24:16.889Z,7.92
2023-02-05T20:26:45.568Z,7.87
2023-02-05T20:29:31.269Z,7.86
2023-02-05T20:32:01.046Z,7.85
2023-02-05T20:34:31.699Z,7.78
2023-02-05T20:37:04.771Z,7.72
2023-02-05T20:39:35.278Z,7.73
2023-02-05T20:42:03.548Z,7.71
2023-02-05T20:44:36.552Z,7.64
2023-02-05T20:47:07.488Z,7.68
2023-02-05T20:49:35.875Z,7.65
2023-02-05T20:52:03.621Z,7.55
2023-02-05T20:54:31.607Z,7.53
2023-02-05T20:57:01.816Z,7.49
2023-02-05T20:59:32.879Z,7.40
2023-02-05T21:02:00.344Z,7.44
2023-02-05T21:04:27.526Z,7.49
2023-02-05T21:06:55.136Z,7.41
2023-02-05T21:09:22.692Z,7.40
2023-02-05T21:11:51.568Z,7.41
2023-02-05T21:14:18.799Z,7.45
2023-02-05T21:16:46.062Z,7.54
2023-02-05T21:19:13.661Z,7.60
2023-02-05T21:21:41.404Z,7.60
2023-02-05T21:24:14.223Z,7.61
2023-02-05T21:26:43.611Z,7.56
2023-02-05T21:29:17.553Z,7.57
2023-02-05T21:31:53.182Z,7.55
2023-02-05T21:34:23.440Z,7.29
2023-02-05T21:36:51.977Z,7.24
2023-02-05T21:39:22.756Z,6.94
2023-02-05T21:41:55.100Z,6.88
2023-02-05T21:44:24.408Z,6.94
2023-02-05T21:46:53.346Z,7.05
2023-02-05T21:49:20.610Z,7.12
2023-02-05T21:51:48.830Z,7.06
2023-02-05T21:54:16.408Z,7.19
2023-02-05T21:57:02.534Z,7.15
2023-02-05T21:59:29.669Z,7.17
2023-02-05T22:01:56.879Z,7.04
2023-02-05T22:04:27.676Z,7.01
2023-02-05T22:06:54.700Z,7.00
2023-02-05T22:09:21.865Z,6.78
2023-02-05T22:11:50.064Z,6.76
2023-02-05T22:14:18.117Z,6.68
2023-02-05T22:16:45.186Z,6.71
2023-02-05T22:19:12.210Z,6.76
2023-02-05T22:21:42.749Z,6.80
2023-02-05T22:24:16.963Z,6.74
2023-02-05T22:26:45.489Z,6.61
2023-02-05T22:29:18.415Z,6.58
2023-02-05T22:31:49.864Z,6.58
2023-02-05T22:34:16.907Z,6.42
2023-02-05T22:40:11.799Z,6.12
2023-02-05T22:42:38.921Z,6.19
2023-02-05T22:45:06.226Z,6.21
2023-02-05T22:47:35.263Z,6.16
2023-02-05T22:50:02.326Z,6.25
2023-02-05T22:52:29.501Z,6.23
2023-02-05T22:55:14.439Z,6.26
2023-02-05T22:57:44.494Z,6.02
2023-02-05T23:00:12.813Z,6.00
2023-02-05T23:02:39.824Z,6.06
2023-02-05T23:05:06.876Z,5.87
2023-02-05T23:07:34.102Z,5.83
2023-02-05T23:10:01.761Z,5.81
2023-02-05T23:12:29.277Z,5.80
2023-02-05T23:14:56.149Z,5.72
2023-02-05T23:17:31.128Z,5.62
2023-02-05T23:19:58.338Z,5.60
2023-02-05T23:22:32.096Z,5.69
2023-02-05T23:25:00.426Z,5.76
2023-02-05T23:27:32.201Z,5.70
2023-02-05T23:29:59.395Z,5.61
2023-02-05T23:32:26.705Z,5.46
2023-02-05T23:35:22.335Z,5.45
2023-02-05T23:37:49.158Z,5.39
2023-02-05T23:40:17.725Z,5.41
2023-02-05T23:42:47.491Z,5.08
2023-02-05T23:45:17.452Z,4.70
2023-02-05T23:47:44.362Z,4.63
2023-02-05T23:50:11.407Z,4.74
2023-02-05T23:52:38.418Z,4.77
2023-02-05T23:55:11.948Z,4.73
2023-02-05T23:57:40.543Z,4.41
